Weather at Köping/Gålby flygfält

Public forecast

Using degrees Celsius for public forecast. Weather courtesy of forecast.io.

Closest aviation weather report (METAR) to Köping/Gålby flygfält

Closest report is Stockholm Västerås Airport, 20.5 nm (38.0 km) E. Retrieved 2022/01/17 16:20 UTC (18 minutes ago):

ESOW 171620Z 27007KT CAVOK 00/M06 Q1014

Closest aviation forecast (TAF) to Köping/Gålby flygfält

Forecast is more than 12 hours old.

Closest forecast is Stockholm Västerås Airport, 20.5 nm (38.0 km) E. Retrieved 2021-06-01 03:36 UTC (8 months ago):

TAF TAF ESOW 190230Z 1903/1915 27005KT CAVOK